sensor_id;sensor_type;location;lat;lon;timestamp;P1;durP1;ratioP1;P2;durP2;ratioP2
76115;SDS011;64847;45.778;12.802;2023-05-19T00:00:47;2.80;;;2.60;;
76115;SDS011;64847;45.778;12.802;2023-05-19T00:03:12;3.23;;;2.93;;
76115;SDS011;64847;45.778;12.802;2023-05-19T00:05:38;3.30;;;3.00;;
76115;SDS011;64847;45.778;12.802;2023-05-19T00:08:09;2.80;;;2.60;;
76115;SDS011;64847;45.778;12.802;2023-05-19T00:10:35;3.13;;;2.93;;
76115;SDS011;64847;45.778;12.802;2023-05-19T00:13:01;3.07;;;2.87;;
76115;SDS011;64847;45.778;12.802;2023-05-19T00:15:26;3.20;;;2.87;;
76115;SDS011;64847;45.778;12.802;2023-05-19T00:17:52;3.10;;;2.90;;
76115;SDS011;64847;45.778;12.802;2023-05-19T00:20:19;3.57;;;3.13;;
76115;SDS011;64847;45.778;12.802;2023-05-19T00:22:45;3.07;;;2.87;;
76115;SDS011;64847;45.778;12.802;2023-05-19T00:25:11;3.37;;;3.07;;
76115;SDS011;64847;45.778;12.802;2023-05-19T00:27:36;3.27;;;3.00;;
76115;SDS011;64847;45.778;12.802;2023-05-19T00:30:01;3.30;;;2.97;;
76115;SDS011;64847;45.778;12.802;2023-05-19T00:32:27;4.10;;;3.33;;
76115;SDS011;64847;45.778;12.802;2023-05-19T00:34:52;3.47;;;3.13;;
76115;SDS011;64847;45.778;12.802;2023-05-19T00:37:18;3.33;;;3.00;;
76115;SDS011;64847;45.778;12.802;2023-05-19T00:39:43;3.43;;;2.97;;
76115;SDS011;64847;45.778;12.802;2023-05-19T00:42:08;3.13;;;2.90;;
76115;SDS011;64847;45.778;12.802;2023-05-19T00:44:36;3.73;;;3.00;;
76115;SDS011;64847;45.778;12.802;2023-05-19T00:47:04;4.10;;;3.27;;
76115;SDS011;64847;45.778;12.802;2023-05-19T00:49:30;3.20;;;3.00;;
76115;SDS011;64847;45.778;12.802;2023-05-19T00:51:55;3.27;;;2.87;;
76115;SDS011;64847;45.778;12.802;2023-05-19T00:54:21;3.30;;;3.10;;
76115;SDS011;64847;45.778;12.802;2023-05-19T00:56:46;3.20;;;2.90;;
76115;SDS011;64847;45.778;12.802;2023-05-19T00:59:13;3.40;;;3.00;;
76115;SDS011;64847;45.778;12.802;2023-05-19T01:01:39;3.30;;;3.07;;
76115;SDS011;64847;45.778;12.802;2023-05-19T01:04:04;4.17;;;3.27;;
76115;SDS011;64847;45.778;12.802;2023-05-19T01:06:33;3.37;;;3.00;;
76115;SDS011;64847;45.778;12.802;2023-05-19T01:09:01;2.97;;;2.73;;
76115;SDS011;64847;45.778;12.802;2023-05-19T01:11:27;3.80;;;3.50;;
76115;SDS011;64847;45.778;12.802;2023-05-19T01:13:53;3.03;;;2.83;;
76115;SDS011;64847;45.778;12.802;2023-05-19T01:30:11;3.43;;;3.13;;
76115;SDS011;64847;45.778;12.802;2023-05-19T01:32:41;3.47;;;3.13;;
76115;SDS011;64847;45.778;12.802;2023-05-19T01:35:08;3.27;;;2.90;;
76115;SDS011;64847;45.778;12.802;2023-05-19T01:37:36;3.57;;;3.10;;
76115;SDS011;64847;45.778;12.802;2023-05-19T01:40:02;3.30;;;3.10;;
76115;SDS011;64847;45.778;12.802;2023-05-19T01:42:27;3.43;;;3.23;;
76115;SDS011;64847;45.778;12.802;2023-05-19T01:44:54;3.83;;;3.50;;
76115;SDS011;64847;45.778;12.802;2023-05-19T01:47:19;3.90;;;3.40;;
76115;SDS011;64847;45.778;12.802;2023-05-19T01:49:45;4.00;;;3.63;;
76115;SDS011;64847;45.778;12.802;2023-05-19T01:52:10;4.00;;;3.50;;
76115;SDS011;64847;45.778;12.802;2023-05-19T01:54:36;4.07;;;3.77;;
76115;SDS011;64847;45.778;12.802;2023-05-19T01:57:23;3.70;;;3.40;;
76115;SDS011;64847;45.778;12.802;2023-05-19T02:05:37;3.33;;;3.13;;
76115;SDS011;64847;45.778;12.802;2023-05-19T02:08:23;5.03;;;3.50;;
76115;SDS011;64847;45.778;12.802;2023-05-19T02:10:57;3.80;;;3.50;;
76115;SDS011;64847;45.778;12.802;2023-05-19T02:13:29;3.53;;;3.30;;
76115;SDS011;64847;45.778;12.802;2023-05-19T02:15:56;3.73;;;3.50;;
76115;SDS011;64847;45.778;12.802;2023-05-19T02:18:28;3.37;;;3.13;;
76115;SDS011;64847;45.778;12.802;2023-05-19T02:20:54;3.83;;;3.50;;
76115;SDS011;64847;45.778;12.802;2023-05-19T02:23:19;3.20;;;3.00;;
76115;SDS011;64847;45.778;12.802;2023-05-19T02:25:45;3.73;;;3.43;;
76115;SDS011;64847;45.778;12.802;2023-05-19T02:28:10;3.50;;;3.20;;
76115;SDS011;64847;45.778;12.802;2023-05-19T02:30:35;3.60;;;3.30;;
76115;SDS011;64847;45.778;12.802;2023-05-19T02:33:01;3.63;;;3.33;;
76115;SDS011;64847;45.778;12.802;2023-05-19T02:35:26;4.50;;;3.77;;
76115;SDS011;64847;45.778;12.802;2023-05-19T02:37:52;3.57;;;3.27;;
76115;SDS011;64847;45.778;12.802;2023-05-19T02:40:18;3.70;;;3.40;;
76115;SDS011;64847;45.778;12.802;2023-05-19T02:42:43;3.43;;;3.20;;
76115;SDS011;64847;45.778;12.802;2023-05-19T02:45:09;3.20;;;2.93;;
76115;SDS011;64847;45.778;12.802;2023-05-19T02:47:34;3.47;;;3.27;;
76115;SDS011;64847;45.778;12.802;2023-05-19T02:50:00;3.70;;;3.40;;
76115;SDS011;64847;45.778;12.802;2023-05-19T02:52:25;3.87;;;3.57;;
76115;SDS011;64847;45.778;12.802;2023-05-19T02:54:51;3.93;;;3.40;;
76115;SDS011;64847;45.778;12.802;2023-05-19T02:57:16;3.77;;;3.47;;
76115;SDS011;64847;45.778;12.802;2023-05-19T02:59:41;3.53;;;3.23;;
76115;SDS011;64847;45.778;12.802;2023-05-19T03:02:07;3.83;;;3.53;;
76115;SDS011;64847;45.778;12.802;2023-05-19T03:04:32;3.90;;;3.57;;
76115;SDS011;64847;45.778;12.802;2023-05-19T03:07:05;4.17;;;3.77;;
76115;SDS011;64847;45.778;12.802;2023-05-19T03:09:31;4.17;;;3.77;;
76115;SDS011;64847;45.778;12.802;2023-05-19T03:11:56;3.37;;;3.17;;
76115;SDS011;64847;45.778;12.802;2023-05-19T03:14:28;3.50;;;3.30;;
76115;SDS011;64847;45.778;12.802;2023-05-19T03:16:53;3.80;;;3.50;;
76115;SDS011;64847;45.778;12.802;2023-05-19T03:19:21;4.33;;;3.93;;
76115;SDS011;64847;45.778;12.802;2023-05-19T03:21:46;3.57;;;3.27;;
76115;SDS011;64847;45.778;12.802;2023-05-19T03:24:12;4.17;;;3.77;;
76115;SDS011;64847;45.778;12.802;2023-05-19T03:26:37;4.07;;;3.77;;
76115;SDS011;64847;45.778;12.802;2023-05-19T03:29:03;3.87;;;3.47;;
76115;SDS011;64847;45.778;12.802;2023-05-19T03:31:28;3.90;;;3.60;;
76115;SDS011;64847;45.778;12.802;2023-05-19T03:33:54;4.70;;;4.10;;
76115;SDS011;64847;45.778;12.802;2023-05-19T03:36:21;4.03;;;3.73;;
76115;SDS011;64847;45.778;12.802;2023-05-19T03:38:47;3.40;;;3.20;;
76115;SDS011;64847;45.778;12.802;2023-05-19T03:41:13;3.80;;;3.27;;
76115;SDS011;64847;45.778;12.802;2023-05-19T03:43:38;3.87;;;3.57;;
76115;SDS011;64847;45.778;12.802;2023-05-19T03:46:03;3.87;;;3.57;;
76115;SDS011;64847;45.778;12.802;2023-05-19T03:48:29;4.00;;;3.60;;
76115;SDS011;64847;45.778;12.802;2023-05-19T03:50:54;3.47;;;3.27;;
76115;SDS011;64847;45.778;12.802;2023-05-19T03:53:20;4.30;;;3.90;;
76115;SDS011;64847;45.778;12.802;2023-05-19T03:55:45;3.70;;;3.40;;
76115;SDS011;64847;45.778;12.802;2023-05-19T03:58:12;4.07;;;3.73;;
76115;SDS011;64847;45.778;12.802;2023-05-19T04:00:38;3.93;;;3.60;;
76115;SDS011;64847;45.778;12.802;2023-05-19T04:03:04;3.73;;;3.43;;
76115;SDS011;64847;45.778;12.802;2023-05-19T04:05:30;4.20;;;3.90;;
76115;SDS011;64847;45.778;12.802;2023-05-19T04:07:55;3.90;;;3.60;;
76115;SDS011;64847;45.778;12.802;2023-05-19T04:10:20;3.80;;;3.43;;
76115;SDS011;64847;45.778;12.802;2023-05-19T04:12:46;3.83;;;3.53;;
76115;SDS011;64847;45.778;12.802;2023-05-19T04:15:12;4.03;;;3.67;;
76115;SDS011;64847;45.778;12.802;2023-05-19T04:17:37;3.53;;;3.23;;
76115;SDS011;64847;45.778;12.802;2023-05-19T04:20:03;3.90;;;3.60;;
76115;SDS011;64847;45.778;12.802;2023-05-19T04:22:32;3.70;;;3.40;;
76115;SDS011;64847;45.778;12.802;2023-05-19T04:24:57;3.57;;;3.27;;
76115;SDS011;64847;45.778;12.802;2023-05-19T04:27:23;3.63;;;3.43;;
76115;SDS011;64847;45.778;12.802;2023-05-19T04:29:49;4.30;;;3.90;;
76115;SDS011;64847;45.778;12.802;2023-05-19T04:32:15;4.00;;;3.70;;
76115;SDS011;64847;45.778;12.802;2023-05-19T04:34:43;3.83;;;3.53;;
76115;SDS011;64847;45.778;12.802;2023-05-19T04:37:11;3.63;;;3.20;;
76115;SDS011;64847;45.778;12.802;2023-05-19T04:39:38;3.90;;;3.60;;
76115;SDS011;64847;45.778;12.802;2023-05-19T04:42:07;3.50;;;3.27;;
76115;SDS011;64847;45.778;12.802;2023-05-19T04:44:33;3.63;;;3.33;;
76115;SDS011;64847;45.778;12.802;2023-05-19T04:47:00;3.47;;;3.27;;
76115;SDS011;64847;45.778;12.802;2023-05-19T04:49:25;3.57;;;3.27;;
76115;SDS011;64847;45.778;12.802;2023-05-19T04:51:51;3.23;;;3.03;;
76115;SDS011;64847;45.778;12.802;2023-05-19T04:54:17;3.47;;;3.27;;
76115;SDS011;64847;45.778;12.802;2023-05-19T04:56:42;3.50;;;3.20;;
76115;SDS011;64847;45.778;12.802;2023-05-19T04:59:08;3.77;;;3.20;;
76115;SDS011;64847;45.778;12.802;2023-05-19T05:01:34;3.40;;;3.20;;
76115;SDS011;64847;45.778;12.802;2023-05-19T05:04:04;3.93;;;3.63;;
76115;SDS011;64847;45.778;12.802;2023-05-19T05:06:30;3.70;;;3.40;;
76115;SDS011;64847;45.778;12.802;2023-05-19T05:08:55;3.93;;;3.63;;
76115;SDS011;64847;45.778;12.802;2023-05-19T05:11:21;4.23;;;3.83;;
76115;SDS011;64847;45.778;12.802;2023-05-19T05:13:47;3.50;;;3.30;;
76115;SDS011;64847;45.778;12.802;2023-05-19T05:16:13;3.60;;;3.30;;
76115;SDS011;64847;45.778;12.802;2023-05-19T05:18:38;3.47;;;3.27;;
76115;SDS011;64847;45.778;12.802;2023-05-19T05:21:05;3.30;;;3.10;;
76115;SDS011;64847;45.778;12.802;2023-05-19T05:23:31;3.67;;;3.40;;
76115;SDS011;64847;45.778;12.802;2023-05-19T05:25:57;3.87;;;3.57;;
76115;SDS011;64847;45.778;12.802;2023-05-19T05:28:22;3.13;;;2.93;;
76115;SDS011;64847;45.778;12.802;2023-05-19T05:30:48;3.33;;;3.03;;
76115;SDS011;64847;45.778;12.802;2023-05-19T05:33:14;3.20;;;3.00;;
76115;SDS011;64847;45.778;12.802;2023-05-19T05:35:40;3.50;;;3.20;;
76115;SDS011;64847;45.778;12.802;2023-05-19T05:38:05;3.67;;;3.37;;
76115;SDS011;64847;45.778;12.802;2023-05-19T05:40:31;3.53;;;3.30;;
76115;SDS011;64847;45.778;12.802;2023-05-19T05:42:56;3.60;;;3.33;;
76115;SDS011;64847;45.778;12.802;2023-05-19T05:45:23;3.40;;;3.10;;
76115;SDS011;64847;45.778;12.802;2023-05-19T05:47:49;3.67;;;3.37;;
76115;SDS011;64847;45.778;12.802;2023-05-19T05:50:15;3.23;;;3.00;;
76115;SDS011;64847;45.778;12.802;2023-05-19T05:52:41;3.30;;;3.03;;
76115;SDS011;64847;45.778;12.802;2023-05-19T05:55:12;3.20;;;3.00;;
76115;SDS011;64847;45.778;12.802;2023-05-19T05:57:38;3.20;;;2.93;;
76115;SDS011;64847;45.778;12.802;2023-05-19T06:00:06;3.10;;;2.90;;
76115;SDS011;64847;45.778;12.802;2023-05-19T06:02:39;3.27;;;3.03;;
76115;SDS011;64847;45.778;12.802;2023-05-19T06:05:14;3.23;;;3.03;;
76115;SDS011;64847;45.778;12.802;2023-05-19T06:07:40;3.17;;;2.97;;
76115;SDS011;64847;45.778;12.802;2023-05-19T06:10:06;3.20;;;2.90;;
76115;SDS011;64847;45.778;12.802;2023-05-19T06:12:32;3.17;;;2.87;;
76115;SDS011;64847;45.778;12.802;2023-05-19T06:14:58;2.97;;;2.77;;
76115;SDS011;64847;45.778;12.802;2023-05-19T06:17:24;2.93;;;2.73;;
76115;SDS011;64847;45.778;12.802;2023-05-19T06:19:49;3.30;;;3.00;;
76115;SDS011;64847;45.778;12.802;2023-05-19T06:22:15;3.40;;;3.20;;
76115;SDS011;64847;45.778;12.802;2023-05-19T06:24:40;3.28;;;2.90;;
76115;SDS011;64847;45.778;12.802;2023-05-19T06:27:05;3.23;;;2.93;;
76115;SDS011;64847;45.778;12.802;2023-05-19T06:29:31;2.90;;;2.77;;
76115;SDS011;64847;45.778;12.802;2023-05-19T06:31:56;3.10;;;2.90;;
76115;SDS011;64847;45.778;12.802;2023-05-19T06:34:21;3.30;;;3.00;;
76115;SDS011;64847;45.778;12.802;2023-05-19T06:36:47;3.00;;;2.80;;
76115;SDS011;64847;45.778;12.802;2023-05-19T06:39:12;3.10;;;2.90;;
76115;SDS011;64847;45.778;12.802;2023-05-19T06:41:38;2.70;;;2.60;;
76115;SDS011;64847;45.778;12.802;2023-05-19T06:44:05;3.15;;;2.88;;
76115;SDS011;64847;45.778;12.802;2023-05-19T06:46:31;2.60;;;2.40;;
76115;SDS011;64847;45.778;12.802;2023-05-19T06:48:56;2.28;;;2.17;;
76115;SDS011;64847;45.778;12.802;2023-05-19T06:51:22;3.42;;;3.13;;
76115;SDS011;64847;45.778;12.802;2023-05-19T06:53:47;6.38;;;5.80;;
76115;SDS011;64847;45.778;12.802;2023-05-19T06:56:13;7.43;;;6.55;;
76115;SDS011;64847;45.778;12.802;2023-05-19T06:58:39;4.80;;;4.40;;
76115;SDS011;64847;45.778;12.802;2023-05-19T07:01:05;3.70;;;3.40;;
76115;SDS011;64847;45.778;12.802;2023-05-19T07:03:30;2.85;;;2.65;;
76115;SDS011;64847;45.778;12.802;2023-05-19T07:05:56;2.53;;;2.42;;
76115;SDS011;64847;45.778;12.802;2023-05-19T07:08:21;2.70;;;2.50;;
76115;SDS011;64847;45.778;12.802;2023-05-19T07:10:46;2.50;;;2.40;;
76115;SDS011;64847;45.778;12.802;2023-05-19T07:13:12;2.80;;;2.40;;
76115;SDS011;64847;45.778;12.802;2023-05-19T07:15:38;3.30;;;3.10;;
76115;SDS011;64847;45.778;12.802;2023-05-19T07:18:03;3.10;;;2.90;;
76115;SDS011;64847;45.778;12.802;2023-05-19T07:20:28;2.50;;;2.40;;
76115;SDS011;64847;45.778;12.802;2023-05-19T07:22:54;3.15;;;2.80;;
76115;SDS011;64847;45.778;12.802;2023-05-19T07:25:19;2.40;;;2.30;;
76115;SDS011;64847;45.778;12.802;2023-05-19T07:27:45;2.20;;;2.10;;
76115;SDS011;64847;45.778;12.802;2023-05-19T07:30:10;2.30;;;2.20;;
76115;SDS011;64847;45.778;12.802;2023-05-19T07:32:36;2.28;;;2.17;;
76115;SDS011;64847;45.778;12.802;2023-05-19T07:35:02;2.38;;;2.28;;
76115;SDS011;64847;45.778;12.802;2023-05-19T07:37:29;2.22;;;2.13;;
76115;SDS011;64847;45.778;12.802;2023-05-19T07:39:55;2.63;;;2.42;;
76115;SDS011;64847;45.778;12.802;2023-05-19T07:42:20;2.30;;;2.00;;
76115;SDS011;64847;45.778;12.802;2023-05-19T07:44:45;2.40;;;2.20;;
76115;SDS011;64847;45.778;12.802;2023-05-19T07:47:11;2.20;;;2.10;;
76115;SDS011;64847;45.778;12.802;2023-05-19T07:49:36;2.30;;;2.20;;
76115;SDS011;64847;45.778;12.802;2023-05-19T07:52:01;2.60;;;2.50;;
76115;SDS011;64847;45.778;12.802;2023-05-19T07:54:27;2.28;;;2.17;;
76115;SDS011;64847;45.778;12.802;2023-05-19T07:56:52;2.25;;;2.15;;
76115;SDS011;64847;45.778;12.802;2023-05-19T07:59:18;2.20;;;2.10;;
76115;SDS011;64847;45.778;12.802;2023-05-19T08:01:43;2.30;;;2.20;;
76115;SDS011;64847;45.778;12.802;2023-05-19T08:04:09;2.00;;;1.90;;
76115;SDS011;64847;45.778;12.802;2023-05-19T08:06:34;2.00;;;1.90;;
76115;SDS011;64847;45.778;12.802;2023-05-19T08:09:00;2.10;;;2.00;;
76115;SDS011;64847;45.778;12.802;2023-05-19T08:11:25;2.38;;;2.17;;
76115;SDS011;64847;45.778;12.802;2023-05-19T08:13:51;1.95;;;1.85;;
76115;SDS011;64847;45.778;12.802;2023-05-19T08:16:16;2.17;;;2.00;;
76115;SDS011;64847;45.778;12.802;2023-05-19T08:18:42;2.00;;;1.90;;
76115;SDS011;64847;45.778;12.802;2023-05-19T08:21:07;1.98;;;1.88;;
76115;SDS011;64847;45.778;12.802;2023-05-19T08:23:33;2.13;;;2.03;;
76115;SDS011;64847;45.778;12.802;2023-05-19T08:25:59;2.05;;;1.95;;
76115;SDS011;64847;45.778;12.802;2023-05-19T08:28:24;1.80;;;1.80;;
76115;SDS011;64847;45.778;12.802;2023-05-19T08:30:50;1.80;;;1.70;;
76115;SDS011;64847;45.778;12.802;2023-05-19T08:33:18;1.58;;;1.58;;
76115;SDS011;64847;45.778;12.802;2023-05-19T08:35:45;1.77;;;1.70;;
76115;SDS011;64847;45.778;12.802;2023-05-19T08:38:11;1.70;;;1.60;;
76115;SDS011;64847;45.778;12.802;2023-05-19T08:40:36;1.80;;;1.70;;
76115;SDS011;64847;45.778;12.802;2023-05-19T08:43:02;2.00;;;1.90;;
76115;SDS011;64847;45.778;12.802;2023-05-19T08:45:28;1.80;;;1.70;;
76115;SDS011;64847;45.778;12.802;2023-05-19T08:47:54;2.20;;;2.05;;
76115;SDS011;64847;45.778;12.802;2023-05-19T08:50:20;2.10;;;2.00;;
76115;SDS011;64847;45.778;12.802;2023-05-19T08:55:30;1.83;;;1.73;;
76115;SDS011;64847;45.778;12.802;2023-05-19T08:58:17;1.85;;;1.75;;
76115;SDS011;64847;45.778;12.802;2023-05-19T09:00:44;2.10;;;1.90;;
76115;SDS011;64847;45.778;12.802;2023-05-19T09:03:10;1.63;;;1.60;;
76115;SDS011;64847;45.778;12.802;2023-05-19T09:05:37;1.50;;;1.40;;
76115;SDS011;64847;45.778;12.802;2023-05-19T09:08:03;1.70;;;1.60;;
76115;SDS011;64847;45.778;12.802;2023-05-19T09:10:28;1.45;;;1.42;;
76115;SDS011;64847;45.778;12.802;2023-05-19T09:12:54;1.88;;;1.77;;
76115;SDS011;64847;45.778;12.802;2023-05-19T09:15:19;2.05;;;1.50;;
76115;SDS011;64847;45.778;12.802;2023-05-19T09:17:46;1.33;;;1.30;;
76115;SDS011;64847;45.778;12.802;2023-05-19T09:20:12;1.20;;;1.20;;
76115;SDS011;64847;45.778;12.802;2023-05-19T09:22:41;1.60;;;1.50;;
76115;SDS011;64847;45.778;12.802;2023-05-19T09:27:47;1.27;;;1.27;;
76115;SDS011;64847;45.778;12.802;2023-05-19T09:30:14;1.40;;;1.30;;
76115;SDS011;64847;45.778;12.802;2023-05-19T09:32:42;1.40;;;1.40;;
76115;SDS011;64847;45.778;12.802;2023-05-19T09:35:08;1.15;;;1.15;;
76115;SDS011;64847;45.778;12.802;2023-05-19T09:37:34;1.10;;;1.10;;
76115;SDS011;64847;45.778;12.802;2023-05-19T09:40:03;1.50;;;1.30;;
76115;SDS011;64847;45.778;12.802;2023-05-19T09:42:30;1.10;;;1.10;;
76115;SDS011;64847;45.778;12.802;2023-05-19T09:45:01;1.10;;;1.10;;
76115;SDS011;64847;45.778;12.802;2023-05-19T09:47:32;1.15;;;1.10;;
76115;SDS011;64847;45.778;12.802;2023-05-19T09:50:04;1.15;;;1.15;;
76115;SDS011;64847;45.778;12.802;2023-05-19T09:52:36;1.10;;;1.10;;
76115;SDS011;64847;45.778;12.802;2023-05-19T09:55:02;1.00;;;1.00;;
76115;SDS011;64847;45.778;12.802;2023-05-19T09:57:33;1.00;;;1.00;;
76115;SDS011;64847;45.778;12.802;2023-05-19T10:00:04;1.90;;;1.00;;
76115;SDS011;64847;45.778;12.802;2023-05-19T10:02:41;1.00;;;1.00;;
76115;SDS011;64847;45.778;12.802;2023-05-19T10:05:09;1.00;;;1.00;;
76115;SDS011;64847;45.778;12.802;2023-05-19T10:07:36;1.00;;;1.00;;
76115;SDS011;64847;45.778;12.802;2023-05-19T10:10:01;0.90;;;0.90;;
76115;SDS011;64847;45.778;12.802;2023-05-19T10:12:27;0.98;;;0.98;;
76115;SDS011;64847;45.778;12.802;2023-05-19T10:14:53;0.93;;;0.93;;
76115;SDS011;64847;45.778;12.802;2023-05-19T10:17:18;0.90;;;0.90;;
76115;SDS011;64847;45.778;12.802;2023-05-19T10:19:44;0.82;;;0.82;;
76115;SDS011;64847;45.778;12.802;2023-05-19T10:22:10;0.98;;;0.98;;
76115;SDS011;64847;45.778;12.802;2023-05-19T10:24:35;1.00;;;1.00;;
76115;SDS011;64847;45.778;12.802;2023-05-19T10:27:02;1.60;;;1.10;;
76115;SDS011;64847;45.778;12.802;2023-05-19T10:29:30;1.77;;;1.52;;
76115;SDS011;64847;45.778;12.802;2023-05-19T10:32:13;1.23;;;1.20;;
76115;SDS011;64847;45.778;12.802;2023-05-19T10:34:49;1.00;;;1.00;;
76115;SDS011;64847;45.778;12.802;2023-05-19T10:39:52;1.00;;;1.00;;
76115;SDS011;64847;45.778;12.802;2023-05-19T10:42:32;1.00;;;1.00;;
76115;SDS011;64847;45.778;12.802;2023-05-19T10:45:12;0.90;;;0.90;;
76115;SDS011;64847;45.778;12.802;2023-05-19T10:47:42;1.35;;;0.93;;
76115;SDS011;64847;45.778;12.802;2023-05-19T10:50:07;1.10;;;1.00;;
76115;SDS011;64847;45.778;12.802;2023-05-19T10:52:37;1.10;;;1.00;;
76115;SDS011;64847;45.778;12.802;2023-05-19T10:55:07;1.02;;;0.90;;
76115;SDS011;64847;45.778;12.802;2023-05-19T10:57:39;1.65;;;0.98;;
76115;SDS011;64847;45.778;12.802;2023-05-19T11:00:27;0.90;;;0.90;;
76115;SDS011;64847;45.778;12.802;2023-05-19T11:02:53;1.25;;;0.82;;
76115;SDS011;64847;45.778;12.802;2023-05-19T11:05:26;0.80;;;0.80;;
76115;SDS011;64847;45.778;12.802;2023-05-19T11:07:57;0.90;;;0.90;;
76115;SDS011;64847;45.778;12.802;2023-05-19T11:10:29;0.70;;;0.70;;
76115;SDS011;64847;45.778;12.802;2023-05-19T11:12:55;0.90;;;0.90;;
76115;SDS011;64847;45.778;12.802;2023-05-19T11:15:22;0.98;;;0.98;;
76115;SDS011;64847;45.778;12.802;2023-05-19T11:17:50;0.95;;;0.95;;
76115;SDS011;64847;45.778;12.802;2023-05-19T11:20:23;1.35;;;1.00;;
76115;SDS011;64847;45.778;12.802;2023-05-19T11:23:05;0.98;;;0.98;;
76115;SDS011;64847;45.778;12.802;2023-05-19T11:28:12;0.90;;;0.90;;
76115;SDS011;64847;45.778;12.802;2023-05-19T11:30:40;1.08;;;1.00;;
76115;SDS011;64847;45.778;12.802;2023-05-19T11:33:06;0.98;;;0.98;;
76115;SDS011;64847;45.778;12.802;2023-05-19T11:35:32;1.23;;;1.00;;
76115;SDS011;64847;45.778;12.802;2023-05-19T11:37:59;2.05;;;1.30;;
76115;SDS011;64847;45.778;12.802;2023-05-19T11:40:25;1.48;;;1.38;;
76115;SDS011;64847;45.778;12.802;2023-05-19T11:42:51;1.80;;;1.15;;
76115;SDS011;64847;45.778;12.802;2023-05-19T11:45:16;1.40;;;1.40;;
76115;SDS011;64847;45.778;12.802;2023-05-19T11:47:44;1.13;;;1.13;;
76115;SDS011;64847;45.778;12.802;2023-05-19T11:50:10;1.60;;;1.45;;
76115;SDS011;64847;45.778;12.802;2023-05-19T11:52:36;1.00;;;1.00;;
76115;SDS011;64847;45.778;12.802;2023-05-19T11:55:02;1.30;;;1.30;;
76115;SDS011;64847;45.778;12.802;2023-05-19T11:57:27;1.33;;;1.23;;
76115;SDS011;64847;45.778;12.802;2023-05-19T11:59:53;1.35;;;1.15;;
76115;SDS011;64847;45.778;12.802;2023-05-19T12:02:21;1.20;;;1.20;;
76115;SDS011;64847;45.778;12.802;2023-05-19T12:04:52;1.20;;;1.13;;
76115;SDS011;64847;45.778;12.802;2023-05-19T12:07:18;1.20;;;1.20;;
76115;SDS011;64847;45.778;12.802;2023-05-19T12:09:47;1.10;;;1.10;;
76115;SDS011;64847;45.778;12.802;2023-05-19T12:12:14;1.10;;;1.10;;
76115;SDS011;64847;45.778;12.802;2023-05-19T12:14:41;1.33;;;1.33;;
76115;SDS011;64847;45.778;12.802;2023-05-19T12:17:17;1.30;;;1.30;;
76115;SDS011;64847;45.778;12.802;2023-05-19T12:19:44;1.20;;;1.20;;
76115;SDS011;64847;45.778;12.802;2023-05-19T12:22:10;1.35;;;1.13;;
76115;SDS011;64847;45.778;12.802;2023-05-19T12:24:36;1.20;;;1.20;;
76115;SDS011;64847;45.778;12.802;2023-05-19T12:27:08;1.40;;;1.17;;
76115;SDS011;64847;45.778;12.802;2023-05-19T12:29:36;1.77;;;1.15;;
76115;SDS011;64847;45.778;12.802;2023-05-19T12:32:02;1.30;;;1.25;;
76115;SDS011;64847;45.778;12.802;2023-05-19T12:34:28;1.17;;;1.13;;
76115;SDS011;64847;45.778;12.802;2023-05-19T12:36:53;1.10;;;1.10;;
76115;SDS011;64847;45.778;12.802;2023-05-19T12:39:19;1.20;;;1.20;;
76115;SDS011;64847;45.778;12.802;2023-05-19T12:41:44;1.10;;;1.10;;
76115;SDS011;64847;45.778;12.802;2023-05-19T12:44:14;1.13;;;1.13;;
76115;SDS011;64847;45.778;12.802;2023-05-19T12:46:40;1.27;;;1.27;;
76115;SDS011;64847;45.778;12.802;2023-05-19T12:49:05;1.10;;;1.10;;
76115;SDS011;64847;45.778;12.802;2023-05-19T12:51:30;1.20;;;1.20;;
76115;SDS011;64847;45.778;12.802;2023-05-19T12:53:56;1.20;;;1.20;;
76115;SDS011;64847;45.778;12.802;2023-05-19T12:56:24;1.40;;;1.30;;
76115;SDS011;64847;45.778;12.802;2023-05-19T12:58:52;1.50;;;1.50;;
76115;SDS011;64847;45.778;12.802;2023-05-19T13:01:18;1.20;;;1.20;;
76115;SDS011;64847;45.778;12.802;2023-05-19T13:03:44;1.50;;;1.50;;
76115;SDS011;64847;45.778;12.802;2023-05-19T13:06:09;1.35;;;1.33;;
76115;SDS011;64847;45.778;12.802;2023-05-19T13:08:35;1.23;;;1.23;;
76115;SDS011;64847;45.778;12.802;2023-05-19T13:11:01;1.70;;;1.63;;
76115;SDS011;64847;45.778;12.802;2023-05-19T13:13:27;1.42;;;1.42;;
76115;SDS011;64847;45.778;12.802;2023-05-19T13:15:52;1.40;;;1.40;;
76115;SDS011;64847;45.778;12.802;2023-05-19T13:18:17;1.42;;;1.33;;
76115;SDS011;64847;45.778;12.802;2023-05-19T13:20:43;1.20;;;1.20;;
76115;SDS011;64847;45.778;12.802;2023-05-19T13:23:10;1.55;;;1.50;;
76115;SDS011;64847;45.778;12.802;2023-05-19T13:25:36;1.30;;;1.30;;
76115;SDS011;64847;45.778;12.802;2023-05-19T13:28:02;1.80;;;1.70;;
76115;SDS011;64847;45.778;12.802;2023-05-19T13:30:36;1.55;;;1.50;;
76115;SDS011;64847;45.778;12.802;2023-05-19T13:33:03;1.50;;;1.50;;
76115;SDS011;64847;45.778;12.802;2023-05-19T13:35:28;2.13;;;1.48;;
76115;SDS011;64847;45.778;12.802;2023-05-19T13:37:55;1.77;;;1.67;;
76115;SDS011;64847;45.778;12.802;2023-05-19T13:40:20;2.47;;;1.67;;
76115;SDS011;64847;45.778;12.802;2023-05-19T13:42:47;1.85;;;1.80;;
76115;SDS011;64847;45.778;12.802;2023-05-19T13:45:13;1.48;;;1.48;;
76115;SDS011;64847;45.778;12.802;2023-05-19T13:47:38;1.70;;;1.70;;
76115;SDS011;64847;45.778;12.802;2023-05-19T13:50:04;2.05;;;1.70;;
76115;SDS011;64847;45.778;12.802;2023-05-19T13:52:30;1.60;;;1.50;;
76115;SDS011;64847;45.778;12.802;2023-05-19T13:54:55;1.45;;;1.45;;
76115;SDS011;64847;45.778;12.802;2023-05-19T13:57:24;1.90;;;1.80;;
76115;SDS011;64847;45.778;12.802;2023-05-19T13:59:50;1.42;;;1.42;;
76115;SDS011;64847;45.778;12.802;2023-05-19T14:02:16;1.70;;;1.70;;
76115;SDS011;64847;45.778;12.802;2023-05-19T14:04:41;2.28;;;2.08;;
76115;SDS011;64847;45.778;12.802;2023-05-19T14:07:07;1.85;;;1.75;;
76115;SDS011;64847;45.778;12.802;2023-05-19T14:09:34;1.60;;;1.50;;
76115;SDS011;64847;45.778;12.802;2023-05-19T14:12:00;1.77;;;1.67;;
76115;SDS011;64847;45.778;12.802;2023-05-19T14:14:25;1.73;;;1.73;;
76115;SDS011;64847;45.778;12.802;2023-05-19T14:16:50;1.65;;;1.55;;
76115;SDS011;64847;45.778;12.802;2023-05-19T14:19:16;1.90;;;1.70;;
76115;SDS011;64847;45.778;12.802;2023-05-19T14:21:41;1.55;;;1.52;;
76115;SDS011;64847;45.778;12.802;2023-05-19T14:24:06;1.83;;;1.73;;
76115;SDS011;64847;45.778;12.802;2023-05-19T14:26:32;2.85;;;1.60;;
76115;SDS011;64847;45.778;12.802;2023-05-19T14:28:57;1.55;;;1.45;;
76115;SDS011;64847;45.778;12.802;2023-05-19T14:31:23;1.75;;;1.65;;
76115;SDS011;64847;45.778;12.802;2023-05-19T14:33:48;1.70;;;1.60;;
76115;SDS011;64847;45.778;12.802;2023-05-19T14:36:14;1.50;;;1.50;;
76115;SDS011;64847;45.778;12.802;2023-05-19T14:38:40;1.52;;;1.52;;
76115;SDS011;64847;45.778;12.802;2023-05-19T14:41:05;1.40;;;1.40;;
76115;SDS011;64847;45.778;12.802;2023-05-19T14:43:31;1.67;;;1.58;;
76115;SDS011;64847;45.778;12.802;2023-05-19T14:45:57;2.08;;;1.98;;
76115;SDS011;64847;45.778;12.802;2023-05-19T14:48:22;1.75;;;1.60;;
76115;SDS011;64847;45.778;12.802;2023-05-19T14:50:47;1.42;;;1.42;;
76115;SDS011;64847;45.778;12.802;2023-05-19T14:53:13;1.63;;;1.63;;
76115;SDS011;64847;45.778;12.802;2023-05-19T14:55:38;1.80;;;1.70;;
76115;SDS011;64847;45.778;12.802;2023-05-19T14:58:04;1.52;;;1.52;;
76115;SDS011;64847;45.778;12.802;2023-05-19T15:00:30;1.70;;;1.60;;